sensor_id;sensor_type;location;lat;lon;timestamp;temperature;humidity
10306;DHT22;5198;52.382;9.020;2022-10-19T00:02:04;11.80;99.90
10306;DHT22;5198;52.382;9.020;2022-10-19T00:06:11;11.80;99.90
10306;DHT22;5198;52.382;9.020;2022-10-19T00:10:14;11.70;99.90
10306;DHT22;5198;52.382;9.020;2022-10-19T00:14:19;11.60;99.90
10306;DHT22;5198;52.382;9.020;2022-10-19T00:18:22;11.60;99.90
10306;DHT22;5198;52.382;9.020;2022-10-19T00:22:25;11.60;99.90
10306;DHT22;5198;52.382;9.020;2022-10-19T00:26:28;11.50;99.90
10306;DHT22;5198;52.382;9.020;2022-10-19T00:30:34;11.50;99.90
10306;DHT22;5198;52.382;9.020;2022-10-19T00:34:37;11.40;99.90
10306;DHT22;5198;52.382;9.020;2022-10-19T00:38:40;11.40;99.90
10306;DHT22;5198;52.382;9.020;2022-10-19T00:42:43;11.40;99.90
10306;DHT22;5198;52.382;9.020;2022-10-19T00:46:47;11.40;99.90
10306;DHT22;5198;52.382;9.020;2022-10-19T00:50:50;11.40;99.90
10306;DHT22;5198;52.382;9.020;2022-10-19T00:54:54;11.40;99.90
10306;DHT22;5198;52.382;9.020;2022-10-19T00:58:58;11.40;99.90
10306;DHT22;5198;52.382;9.020;2022-10-19T01:03:02;11.40;99.90
10306;DHT22;5198;52.382;9.020;2022-10-19T01:07:06;11.40;99.90
10306;DHT22;5198;52.382;9.020;2022-10-19T01:11:14;11.40;99.90
10306;DHT22;5198;52.382;9.020;2022-10-19T01:15:22;11.40;99.90
10306;DHT22;5198;52.382;9.020;2022-10-19T01:19:38;11.40;99.90
10306;DHT22;5198;52.382;9.020;2022-10-19T01:28:14;11.30;99.90
10306;DHT22;5198;52.382;9.020;2022-10-19T01:32:21;11.20;99.90
10306;DHT22;5198;52.382;9.020;2022-10-19T01:36:26;11.10;99.90
10306;DHT22;5198;52.382;9.020;2022-10-19T01:40:37;11.00;99.90
10306;DHT22;5198;52.382;9.020;2022-10-19T01:44:43;11.00;99.90
10306;DHT22;5198;52.382;9.020;2022-10-19T01:48:52;10.90;99.90
10306;DHT22;5198;52.382;9.020;2022-10-19T01:52:56;10.90;99.90
10306;DHT22;5198;52.382;9.020;2022-10-19T01:57:00;10.80;99.90
10306;DHT22;5198;52.382;9.020;2022-10-19T02:01:05;10.80;99.90
10306;DHT22;5198;52.382;9.020;2022-10-19T02:05:17;10.80;99.90
10306;DHT22;5198;52.382;9.020;2022-10-19T02:09:21;10.90;99.90
10306;DHT22;5198;52.382;9.020;2022-10-19T02:13:23;10.90;99.90
10306;DHT22;5198;52.382;9.020;2022-10-19T02:17:29;10.90;99.90
10306;DHT22;5198;52.382;9.020;2022-10-19T02:21:35;10.90;99.90
10306;DHT22;5198;52.382;9.020;2022-10-19T02:25:37;11.00;99.90
10306;DHT22;5198;52.382;9.020;2022-10-19T02:29:40;11.00;99.90
10306;DHT22;5198;52.382;9.020;2022-10-19T02:33:43;11.10;99.90
10306;DHT22;5198;52.382;9.020;2022-10-19T02:37:48;11.10;99.90
10306;DHT22;5198;52.382;9.020;2022-10-19T02:41:51;11.10;99.90
10306;DHT22;5198;52.382;9.020;2022-10-19T02:45:57;11.20;99.90
10306;DHT22;5198;52.382;9.020;2022-10-19T02:50:03;11.20;99.90
10306;DHT22;5198;52.382;9.020;2022-10-19T02:54:07;11.20;99.90
10306;DHT22;5198;52.382;9.020;2022-10-19T02:58:10;11.20;99.90
10306;DHT22;5198;52.382;9.020;2022-10-19T03:02:13;11.30;99.90
10306;DHT22;5198;52.382;9.020;2022-10-19T03:06:16;11.30;99.90
10306;DHT22;5198;52.382;9.020;2022-10-19T03:10:20;11.30;99.90
10306;DHT22;5198;52.382;9.020;2022-10-19T03:14:23;11.40;99.90
10306;DHT22;5198;52.382;9.020;2022-10-19T03:18:26;11.40;99.90
10306;DHT22;5198;52.382;9.020;2022-10-19T03:22:29;11.40;99.90
10306;DHT22;5198;52.382;9.020;2022-10-19T03:26:33;11.40;99.90
10306;DHT22;5198;52.382;9.020;2022-10-19T03:30:36;11.40;99.90
10306;DHT22;5198;52.382;9.020;2022-10-19T03:34:38;11.50;99.90
10306;DHT22;5198;52.382;9.020;2022-10-19T03:38:41;11.50;99.90
10306;DHT22;5198;52.382;9.020;2022-10-19T03:42:45;11.50;99.90
10306;DHT22;5198;52.382;9.020;2022-10-19T03:46:48;11.50;99.90
10306;DHT22;5198;52.382;9.020;2022-10-19T03:50:56;11.50;99.90
10306;DHT22;5198;52.382;9.020;2022-10-19T03:54:59;11.50;99.90
10306;DHT22;5198;52.382;9.020;2022-10-19T03:59:04;11.50;99.90
10306;DHT22;5198;52.382;9.020;2022-10-19T04:03:07;11.50;99.90
10306;DHT22;5198;52.382;9.020;2022-10-19T04:07:10;11.50;99.90
10306;DHT22;5198;52.382;9.020;2022-10-19T04:11:13;11.50;99.90
10306;DHT22;5198;52.382;9.020;2022-10-19T04:15:17;11.50;99.90
10306;DHT22;5198;52.382;9.020;2022-10-19T04:19:21;11.50;99.90
10306;DHT22;5198;52.382;9.020;2022-10-19T04:23:25;11.50;99.90
10306;DHT22;5198;52.382;9.020;2022-10-19T04:27:28;11.50;99.90
10306;DHT22;5198;52.382;9.020;2022-10-19T04:31:32;11.50;99.90
10306;DHT22;5198;52.382;9.020;2022-10-19T04:35:35;11.50;99.90
10306;DHT22;5198;52.382;9.020;2022-10-19T04:39:38;11.40;99.90
10306;DHT22;5198;52.382;9.020;2022-10-19T04:43:44;11.40;99.90
10306;DHT22;5198;52.382;9.020;2022-10-19T04:47:49;11.40;99.90
10306;DHT22;5198;52.382;9.020;2022-10-19T04:51:51;11.40;99.90
10306;DHT22;5198;52.382;9.020;2022-10-19T04:55:54;11.40;99.90
10306;DHT22;5198;52.382;9.020;2022-10-19T04:59:57;11.40;99.90
10306;DHT22;5198;52.382;9.020;2022-10-19T05:04:02;11.40;99.90
10306;DHT22;5198;52.382;9.020;2022-10-19T05:08:05;11.40;99.90
10306;DHT22;5198;52.382;9.020;2022-10-19T05:12:08;11.40;99.90
10306;DHT22;5198;52.382;9.020;2022-10-19T05:16:12;11.40;99.90
10306;DHT22;5198;52.382;9.020;2022-10-19T05:20:16;11.40;99.90
10306;DHT22;5198;52.382;9.020;2022-10-19T05:24:19;11.40;99.90
10306;DHT22;5198;52.382;9.020;2022-10-19T05:28:22;11.40;99.90
10306;DHT22;5198;52.382;9.020;2022-10-19T05:32:25;11.40;99.90
10306;DHT22;5198;52.382;9.020;2022-10-19T05:36:30;11.40;99.90
10306;DHT22;5198;52.382;9.020;2022-10-19T05:40:35;11.50;99.90
10306;DHT22;5198;52.382;9.020;2022-10-19T05:44:38;11.50;99.90
10306;DHT22;5198;52.382;9.020;2022-10-19T05:48:41;11.50;99.90
10306;DHT22;5198;52.382;9.020;2022-10-19T05:52:45;11.50;99.90
10306;DHT22;5198;52.382;9.020;2022-10-19T05:56:48;11.50;99.90
10306;DHT22;5198;52.382;9.020;2022-10-19T06:00:52;11.50;99.90
10306;DHT22;5198;52.382;9.020;2022-10-19T06:04:56;11.50;99.90
10306;DHT22;5198;52.382;9.020;2022-10-19T06:09:00;11.50;99.90
10306;DHT22;5198;52.382;9.020;2022-10-19T06:13:03;11.50;99.90
10306;DHT22;5198;52.382;9.020;2022-10-19T06:17:06;11.60;99.90
10306;DHT22;5198;52.382;9.020;2022-10-19T06:21:10;11.60;99.90
10306;DHT22;5198;52.382;9.020;2022-10-19T06:25:15;11.60;99.90
10306;DHT22;5198;52.382;9.020;2022-10-19T06:29:21;11.60;99.90
10306;DHT22;5198;52.382;9.020;2022-10-19T06:33:23;11.60;99.90
10306;DHT22;5198;52.382;9.020;2022-10-19T06:37:26;11.60;99.90
10306;DHT22;5198;52.382;9.020;2022-10-19T06:41:31;11.70;99.90
10306;DHT22;5198;52.382;9.020;2022-10-19T06:45:36;11.70;99.90
10306;DHT22;5198;52.382;9.020;2022-10-19T06:49:39;11.70;99.90
10306;DHT22;5198;52.382;9.020;2022-10-19T06:53:41;11.70;99.90
10306;DHT22;5198;52.382;9.020;2022-10-19T06:57:46;11.80;99.90
10306;DHT22;5198;52.382;9.020;2022-10-19T07:01:49;11.80;99.90
10306;DHT22;5198;52.382;9.020;2022-10-19T07:05:52;11.90;99.90
10306;DHT22;5198;52.382;9.020;2022-10-19T07:09:55;11.90;99.90
10306;DHT22;5198;52.382;9.020;2022-10-19T07:13:59;12.00;99.90
10306;DHT22;5198;52.382;9.020;2022-10-19T07:18:02;12.00;99.90
10306;DHT22;5198;52.382;9.020;2022-10-19T07:22:05;12.10;99.90
10306;DHT22;5198;52.382;9.020;2022-10-19T07:26:09;12.10;99.90
10306;DHT22;5198;52.382;9.020;2022-10-19T07:30:14;12.20;99.90
10306;DHT22;5198;52.382;9.020;2022-10-19T07:34:17;12.20;99.90
10306;DHT22;5198;52.382;9.020;2022-10-19T07:38:26;12.30;99.90
10306;DHT22;5198;52.382;9.020;2022-10-19T07:42:30;12.30;99.90
10306;DHT22;5198;52.382;9.020;2022-10-19T07:50:39;12.40;99.90
10306;DHT22;5198;52.382;9.020;2022-10-19T07:54:41;12.50;99.90
10306;DHT22;5198;52.382;9.020;2022-10-19T07:58:44;12.50;99.90
10306;DHT22;5198;52.382;9.020;2022-10-19T08:02:47;12.60;99.90
10306;DHT22;5198;52.382;9.020;2022-10-19T08:07:12;12.70;99.90
10306;DHT22;5198;52.382;9.020;2022-10-19T08:11:15;12.70;99.90
10306;DHT22;5198;52.382;9.020;2022-10-19T08:15:18;12.80;99.90
10306;DHT22;5198;52.382;9.020;2022-10-19T08:19:21;12.90;99.90
10306;DHT22;5198;52.382;9.020;2022-10-19T08:23:26;13.00;99.90
10306;DHT22;5198;52.382;9.020;2022-10-19T08:27:29;13.00;99.90
10306;DHT22;5198;52.382;9.020;2022-10-19T08:31:32;13.00;99.90
10306;DHT22;5198;52.382;9.020;2022-10-19T08:35:35;13.10;99.90
10306;DHT22;5198;52.382;9.020;2022-10-19T08:39:39;13.10;99.90
10306;DHT22;5198;52.382;9.020;2022-10-19T08:43:45;13.20;99.90
10306;DHT22;5198;52.382;9.020;2022-10-19T08:47:53;13.20;99.90
10306;DHT22;5198;52.382;9.020;2022-10-19T08:52:00;13.30;99.90
10306;DHT22;5198;52.382;9.020;2022-10-19T08:56:14;13.30;99.90
10306;DHT22;5198;52.382;9.020;2022-10-19T09:00:40;13.30;99.90
10306;DHT22;5198;52.382;9.020;2022-10-19T09:04:44;13.40;99.90
10306;DHT22;5198;52.382;9.020;2022-10-19T09:08:49;13.40;99.90
10306;DHT22;5198;52.382;9.020;2022-10-19T09:12:55;13.40;99.90
10306;DHT22;5198;52.382;9.020;2022-10-19T09:17:01;13.40;99.90
10306;DHT22;5198;52.382;9.020;2022-10-19T09:21:08;13.50;99.90
10306;DHT22;5198;52.382;9.020;2022-10-19T09:25:13;13.60;99.90
10306;DHT22;5198;52.382;9.020;2022-10-19T09:29:23;13.60;99.90
10306;DHT22;5198;52.382;9.020;2022-10-19T09:33:29;13.70;99.90
10306;DHT22;5198;52.382;9.020;2022-10-19T09:37:35;13.80;99.90
10306;DHT22;5198;52.382;9.020;2022-10-19T09:41:42;13.90;99.90
10306;DHT22;5198;52.382;9.020;2022-10-19T09:45:48;14.00;99.90
10306;DHT22;5198;52.382;9.020;2022-10-19T09:50:04;14.00;99.90
10306;DHT22;5198;52.382;9.020;2022-10-19T09:54:20;14.10;99.90
10306;DHT22;5198;52.382;9.020;2022-10-19T09:58:24;14.10;99.90
10306;DHT22;5198;52.382;9.020;2022-10-19T10:02:34;14.20;99.90
10306;DHT22;5198;52.382;9.020;2022-10-19T10:06:38;14.20;99.90
10306;DHT22;5198;52.382;9.020;2022-10-19T10:10:42;14.30;99.90
10306;DHT22;5198;52.382;9.020;2022-10-19T10:14:46;14.30;99.90
10306;DHT22;5198;52.382;9.020;2022-10-19T10:18:52;14.40;99.90
10306;DHT22;5198;52.382;9.020;2022-10-19T10:22:57;14.40;99.90
10306;DHT22;5198;52.382;9.020;2022-10-19T10:27:01;14.50;99.90
10306;DHT22;5198;52.382;9.020;2022-10-19T10:31:05;14.50;99.90
10306;DHT22;5198;52.382;9.020;2022-10-19T10:35:15;14.60;99.90
10306;DHT22;5198;52.382;9.020;2022-10-19T10:39:18;14.60;99.90
10306;DHT22;5198;52.382;9.020;2022-10-19T10:43:24;14.70;99.90
10306;DHT22;5198;52.382;9.020;2022-10-19T10:47:29;14.80;99.90
10306;DHT22;5198;52.382;9.020;2022-10-19T10:51:37;14.80;99.90
10306;DHT22;5198;52.382;9.020;2022-10-19T10:55:40;14.90;99.90
10306;DHT22;5198;52.382;9.020;2022-10-19T10:59:49;15.00;99.90
10306;DHT22;5198;52.382;9.020;2022-10-19T11:03:54;15.30;99.90
10306;DHT22;5198;52.382;9.020;2022-10-19T11:08:02;15.60;99.90
10306;DHT22;5198;52.382;9.020;2022-10-19T11:16:11;16.60;99.90
10306;DHT22;5198;52.382;9.020;2022-10-19T11:20:14;16.70;99.90
10306;DHT22;5198;52.382;9.020;2022-10-19T11:24:20;16.70;99.90
10306;DHT22;5198;52.382;9.020;2022-10-19T11:28:31;16.60;99.90
10306;DHT22;5198;52.382;9.020;2022-10-19T11:32:44;16.50;99.90
10306;DHT22;5198;52.382;9.020;2022-10-19T11:36:49;16.60;99.90
10306;DHT22;5198;52.382;9.020;2022-10-19T11:40:58;17.10;99.90
10306;DHT22;5198;52.382;9.020;2022-10-19T11:45:22;17.10;99.90
10306;DHT22;5198;52.382;9.020;2022-10-19T11:49:31;17.30;99.90
10306;DHT22;5198;52.382;9.020;2022-10-19T11:53:39;17.40;99.90
10306;DHT22;5198;52.382;9.020;2022-10-19T11:57:49;17.70;99.90
10306;DHT22;5198;52.382;9.020;2022-10-19T12:01:57;18.20;99.90
10306;DHT22;5198;52.382;9.020;2022-10-19T12:34:33;19.60;99.90
10306;DHT22;5198;52.382;9.020;2022-10-19T12:38:41;19.40;99.90
10306;DHT22;5198;52.382;9.020;2022-10-19T12:42:52;19.20;99.90
10306;DHT22;5198;52.382;9.020;2022-10-19T12:46:58;19.00;99.90
10306;DHT22;5198;52.382;9.020;2022-10-19T12:51:04;18.80;99.90
10306;DHT22;5198;52.382;9.020;2022-10-19T12:55:17;18.70;99.90
10306;DHT22;5198;52.382;9.020;2022-10-19T12:59:24;18.50;99.90
10306;DHT22;5198;52.382;9.020;2022-10-19T13:03:30;18.30;99.90
10306;DHT22;5198;52.382;9.020;2022-10-19T13:07:35;18.20;99.90
10306;DHT22;5198;52.382;9.020;2022-10-19T13:11:41;18.00;99.90
10306;DHT22;5198;52.382;9.020;2022-10-19T13:20:45;17.70;99.90
10306;DHT22;5198;52.382;9.020;2022-10-19T13:29:24;17.30;99.90
10306;DHT22;5198;52.382;9.020;2022-10-19T13:33:43;17.20;99.90
10306;DHT22;5198;52.382;9.020;2022-10-19T13:38:01;17.00;99.90
10306;DHT22;5198;52.382;9.020;2022-10-19T13:42:21;16.90;99.90
10306;DHT22;5198;52.382;9.020;2022-10-19T13:46:31;16.70;99.90
10306;DHT22;5198;52.382;9.020;2022-10-19T13:50:37;16.50;99.90
10306;DHT22;5198;52.382;9.020;2022-10-19T13:54:49;16.40;99.90
10306;DHT22;5198;52.382;9.020;2022-10-19T13:59:04;16.30;99.90
10306;DHT22;5198;52.382;9.020;2022-10-19T14:03:18;16.30;99.90
10306;DHT22;5198;52.382;9.020;2022-10-19T14:07:25;16.20;99.90
10306;DHT22;5198;52.382;9.020;2022-10-19T14:11:32;16.10;99.90
10306;DHT22;5198;52.382;9.020;2022-10-19T14:15:36;16.00;99.90
10306;DHT22;5198;52.382;9.020;2022-10-19T14:19:42;15.90;99.90
10306;DHT22;5198;52.382;9.020;2022-10-19T14:23:45;15.80;99.90
10306;DHT22;5198;52.382;9.020;2022-10-19T14:27:49;15.70;99.90
10306;DHT22;5198;52.382;9.020;2022-10-19T14:31:53;15.70;99.90
10306;DHT22;5198;52.382;9.020;2022-10-19T14:35:57;15.70;99.90
10306;DHT22;5198;52.382;9.020;2022-10-19T14:40:02;15.70;99.90
10306;DHT22;5198;52.382;9.020;2022-10-19T14:44:20;15.70;99.90
10306;DHT22;5198;52.382;9.020;2022-10-19T14:48:23;15.80;99.90
10306;DHT22;5198;52.382;9.020;2022-10-19T14:52:28;15.80;99.90
10306;DHT22;5198;52.382;9.020;2022-10-19T14:56:35;15.80;99.90
10306;DHT22;5198;52.382;9.020;2022-10-19T15:00:39;15.80;99.90
10306;DHT22;5198;52.382;9.020;2022-10-19T15:04:42;15.80;99.90
10306;DHT22;5198;52.382;9.020;2022-10-19T15:08:48;15.80;99.90
10306;DHT22;5198;52.382;9.020;2022-10-19T15:12:56;15.80;99.90
10306;DHT22;5198;52.382;9.020;2022-10-19T15:17:00;15.80;99.90
10306;DHT22;5198;52.382;9.020;2022-10-19T15:21:10;15.70;99.90
10306;DHT22;5198;52.382;9.020;2022-10-19T15:25:22;15.80;99.90
10306;DHT22;5198;52.382;9.020;2022-10-19T15:29:27;16.00;99.90
10306;DHT22;5198;52.382;9.020;2022-10-19T15:33:33;16.30;99.90
10306;DHT22;5198;52.382;9.020;2022-10-19T15:37:38;16.40;99.90
10306;DHT22;5198;52.382;9.020;2022-10-19T15:41:44;16.60;99.90
10306;DHT22;5198;52.382;9.020;2022-10-19T15:45:47;16.70;99.90
10306;DHT22;5198;52.382;9.020;2022-10-19T15:50:00;16.60;99.90
10306;DHT22;5198;52.382;9.020;2022-10-19T15:54:04;16.50;99.90
10306;DHT22;5198;52.382;9.020;2022-10-19T15:58:09;16.20;99.90
10306;DHT22;5198;52.382;9.020;2022-10-19T16:02:12;15.90;99.90
10306;DHT22;5198;52.382;9.020;2022-10-19T16:06:16;15.70;99.90
10306;DHT22;5198;52.382;9.020;2022-10-19T16:10:19;15.40;99.90
10306;DHT22;5198;52.382;9.020;2022-10-19T16:14:24;15.10;99.90
10306;DHT22;5198;52.382;9.020;2022-10-19T16:18:28;14.80;99.90
10306;DHT22;5198;52.382;9.020;2022-10-19T16:22:31;14.60;99.90
10306;DHT22;5198;52.382;9.020;2022-10-19T16:26:34;14.40;99.90
10306;DHT22;5198;52.382;9.020;2022-10-19T16:30:38;14.10;99.90
10306;DHT22;5198;52.382;9.020;2022-10-19T16:34:41;13.90;99.90
10306;DHT22;5198;52.382;9.020;2022-10-19T16:38:44;13.70;99.90
10306;DHT22;5198;52.382;9.020;2022-10-19T16:42:47;13.50;99.90
10306;DHT22;5198;52.382;9.020;2022-10-19T16:46:51;13.40;99.90
10306;DHT22;5198;52.382;9.020;2022-10-19T16:55:16;13.00;99.90
10306;DHT22;5198;52.382;9.020;2022-10-19T16:59:19;12.90;99.90
10306;DHT22;5198;52.382;9.020;2022-10-19T17:03:23;12.70;99.90
10306;DHT22;5198;52.382;9.020;2022-10-19T17:07:26;12.50;99.90
10306;DHT22;5198;52.382;9.020;2022-10-19T17:11:30;12.40;99.90
10306;DHT22;5198;52.382;9.020;2022-10-19T17:15:33;12.30;99.90
10306;DHT22;5198;52.382;9.020;2022-10-19T17:19:45;12.20;99.90
10306;DHT22;5198;52.382;9.020;2022-10-19T17:23:50;12.10;99.90
10306;DHT22;5198;52.382;9.020;2022-10-19T17:27:53;12.00;99.90
10306;DHT22;5198;52.382;9.020;2022-10-19T17:31:56;11.90;99.90
10306;DHT22;5198;52.382;9.020;2022-10-19T17:36:04;11.80;99.90
10306;DHT22;5198;52.382;9.020;2022-10-19T17:40:07;11.70;99.90
10306;DHT22;5198;52.382;9.020;2022-10-19T17:44:10;11.60;99.90
10306;DHT22;5198;52.382;9.020;2022-10-19T17:48:13;11.50;99.90
10306;DHT22;5198;52.382;9.020;2022-10-19T17:52:18;11.40;99.90
10306;DHT22;5198;52.382;9.020;2022-10-19T17:56:21;11.30;99.90
10306;DHT22;5198;52.382;9.020;2022-10-19T18:00:23;11.20;99.90
10306;DHT22;5198;52.382;9.020;2022-10-19T18:04:26;11.20;99.90
10306;DHT22;5198;52.382;9.020;2022-10-19T18:08:32;11.10;99.90
10306;DHT22;5198;52.382;9.020;2022-10-19T18:12:35;11.00;99.90
10306;DHT22;5198;52.382;9.020;2022-10-19T18:16:39;11.00;99.90
10306;DHT22;5198;52.382;9.020;2022-10-19T18:24:46;10.80;99.90
10306;DHT22;5198;52.382;9.020;2022-10-19T18:28:50;10.80;99.90
10306;DHT22;5198;52.382;9.020;2022-10-19T18:32:53;10.70;99.90
10306;DHT22;5198;52.382;9.020;2022-10-19T18:36:56;10.70;99.90
10306;DHT22;5198;52.382;9.020;2022-10-19T18:41:01;10.70;99.90
10306;DHT22;5198;52.382;9.020;2022-10-19T18:45:04;10.70;99.90
10306;DHT22;5198;52.382;9.020;2022-10-19T18:49:07;10.70;99.90
10306;DHT22;5198;52.382;9.020;2022-10-19T18:53:10;10.60;99.90
10306;DHT22;5198;52.382;9.020;2022-10-19T18:57:16;10.60;99.90
10306;DHT22;5198;52.382;9.020;2022-10-19T19:01:20;10.60;99.90
10306;DHT22;5198;52.382;9.020;2022-10-19T19:05:25;10.50;99.90
10306;DHT22;5198;52.382;9.020;2022-10-19T19:09:28;10.50;99.90
10306;DHT22;5198;52.382;9.020;2022-10-19T19:17:36;10.50;99.90
10306;DHT22;5198;52.382;9.020;2022-10-19T19:21:39;10.40;99.90
10306;DHT22;5198;52.382;9.020;2022-10-19T19:25:45;10.40;99.90
10306;DHT22;5198;52.382;9.020;2022-10-19T19:29:48;10.40;99.90
10306;DHT22;5198;52.382;9.020;2022-10-19T19:33:53;10.40;99.90
10306;DHT22;5198;52.382;9.020;2022-10-19T19:37:56;10.30;99.90
10306;DHT22;5198;52.382;9.020;2022-10-19T19:41:58;10.30;99.90
10306;DHT22;5198;52.382;9.020;2022-10-19T19:46:02;10.30;99.90
10306;DHT22;5198;52.382;9.020;2022-10-19T19:50:11;10.20;99.90
10306;DHT22;5198;52.382;9.020;2022-10-19T19:54:13;10.20;99.90
10306;DHT22;5198;52.382;9.020;2022-10-19T19:58:16;10.20;99.90
10306;DHT22;5198;52.382;9.020;2022-10-19T20:02:19;10.20;99.90
10306;DHT22;5198;52.382;9.020;2022-10-19T20:06:24;10.20;99.90
10306;DHT22;5198;52.382;9.020;2022-10-19T20:10:26;10.20;99.90
10306;DHT22;5198;52.382;9.020;2022-10-19T20:14:29;10.20;99.90
10306;DHT22;5198;52.382;9.020;2022-10-19T20:18:32;10.20;99.90
10306;DHT22;5198;52.382;9.020;2022-10-19T20:22:37;10.20;99.90
10306;DHT22;5198;52.382;9.020;2022-10-19T20:26:40;10.20;99.90
10306;DHT22;5198;52.382;9.020;2022-10-19T20:30:43;10.20;99.90
10306;DHT22;5198;52.382;9.020;2022-10-19T20:34:46;10.20;99.90
10306;DHT22;5198;52.382;9.020;2022-10-19T20:38:51;10.20;99.90
10306;DHT22;5198;52.382;9.020;2022-10-19T20:42:54;10.20;99.90
10306;DHT22;5198;52.382;9.020;2022-10-19T20:46:58;10.20;99.90
10306;DHT22;5198;52.382;9.020;2022-10-19T20:51:11;10.20;99.90
10306;DHT22;5198;52.382;9.020;2022-10-19T20:55:15;10.10;99.90
10306;DHT22;5198;52.382;9.020;2022-10-19T20:59:21;10.10;99.90
10306;DHT22;5198;52.382;9.020;2022-10-19T21:03:25;10.10;99.90
10306;DHT22;5198;52.382;9.020;2022-10-19T21:07:28;10.00;99.90
10306;DHT22;5198;52.382;9.020;2022-10-19T21:11:33;10.00;99.90
10306;DHT22;5198;52.382;9.020;2022-10-19T21:15:36;9.90;99.90
10306;DHT22;5198;52.382;9.020;2022-10-19T21:19:39;9.90;99.90
10306;DHT22;5198;52.382;9.020;2022-10-19T21:23:43;9.90;99.90
10306;DHT22;5198;52.382;9.020;2022-10-19T21:27:48;9.80;99.90
10306;DHT22;5198;52.382;9.020;2022-10-19T21:31:53;9.80;99.90
10306;DHT22;5198;52.382;9.020;2022-10-19T21:39:59;9.70;99.90
10306;DHT22;5198;52.382;9.020;2022-10-19T21:44:03;9.70;99.90
10306;DHT22;5198;52.382;9.020;2022-10-19T21:52:09;9.60;99.90
10306;DHT22;5198;52.382;9.020;2022-10-19T21:56:16;9.60;99.90
10306;DHT22;5198;52.382;9.020;2022-10-19T22:00:21;9.50;99.90
10306;DHT22;5198;52.382;9.020;2022-10-19T22:04:24;9.60;99.90
10306;DHT22;5198;52.382;9.020;2022-10-19T22:08:26;9.50;99.90
10306;DHT22;5198;52.382;9.020;2022-10-19T22:12:30;9.50;99.90
10306;DHT22;5198;52.382;9.020;2022-10-19T22:16:34;9.40;99.90
10306;DHT22;5198;52.382;9.020;2022-10-19T22:20:38;9.40;99.90
10306;DHT22;5198;52.382;9.020;2022-10-19T22:24:41;9.40;99.90
10306;DHT22;5198;52.382;9.020;2022-10-19T22:28:44;9.40;99.90
10306;DHT22;5198;52.382;9.020;2022-10-19T22:32:48;9.40;99.90
10306;DHT22;5198;52.382;9.020;2022-10-19T22:36:51;9.30;99.90
10306;DHT22;5198;52.382;9.020;2022-10-19T22:40:54;9.30;99.90
10306;DHT22;5198;52.382;9.020;2022-10-19T22:44:56;9.30;99.90
10306;DHT22;5198;52.382;9.020;2022-10-19T22:49:01;9.20;99.90
10306;DHT22;5198;52.382;9.020;2022-10-19T22:53:04;9.20;99.90
10306;DHT22;5198;52.382;9.020;2022-10-19T22:57:06;9.20;99.90
10306;DHT22;5198;52.382;9.020;2022-10-19T23:01:10;9.10;99.90
10306;DHT22;5198;52.382;9.020;2022-10-19T23:05:14;9.10;99.90
10306;DHT22;5198;52.382;9.020;2022-10-19T23:09:17;9.10;99.90
10306;DHT22;5198;52.382;9.020;2022-10-19T23:13:20;9.00;99.90
10306;DHT22;5198;52.382;9.020;2022-10-19T23:17:23;9.00;99.90
10306;DHT22;5198;52.382;9.020;2022-10-19T23:21:27;9.00;99.90
10306;DHT22;5198;52.382;9.020;2022-10-19T23:25:30;9.00;99.90
10306;DHT22;5198;52.382;9.020;2022-10-19T23:29:38;8.90;99.90
10306;DHT22;5198;52.382;9.020;2022-10-19T23:33:41;8.90;99.90
10306;DHT22;5198;52.382;9.020;2022-10-19T23:37:45;8.90;99.90
10306;DHT22;5198;52.382;9.020;2022-10-19T23:41:48;8.90;99.90
10306;DHT22;5198;52.382;9.020;2022-10-19T23:45:51;8.90;99.90
10306;DHT22;5198;52.382;9.020;2022-10-19T23:49:54;8.80;99.90
10306;DHT22;5198;52.382;9.020;2022-10-19T23:53:58;8.80;99.90
10306;DHT22;5198;52.382;9.020;2022-10-19T23:58:01;8.80;99.90
